sensor_id;sensor_type;location;lat;lon;timestamp;P1;durP1;ratioP1;P2;durP2;ratioP2
29906;SDS011;16776;50.958;10.994;2023-11-19T00:01:31;0.20;;;0.10;;
29906;SDS011;16776;50.958;10.994;2023-11-19T00:03:58;0.20;;;0.13;;
29906;SDS011;16776;50.958;10.994;2023-11-19T00:06:25;0.13;;;0.10;;
29906;SDS011;16776;50.958;10.994;2023-11-19T00:08:52;0.50;;;0.50;;
29906;SDS011;16776;50.958;10.994;2023-11-19T00:11:18;0.13;;;0.13;;
29906;SDS011;16776;50.958;10.994;2023-11-19T00:13:46;0.10;;;0.10;;
29906;SDS011;16776;50.958;10.994;2023-11-19T00:16:13;0.10;;;0.10;;
29906;SDS011;16776;50.958;10.994;2023-11-19T00:18:39;0.63;;;0.20;;
29906;SDS011;16776;50.958;10.994;2023-11-19T00:21:06;0.10;;;0.10;;
29906;SDS011;16776;50.958;10.994;2023-11-19T00:23:35;0.10;;;0.10;;
29906;SDS011;16776;50.958;10.994;2023-11-19T00:26:01;0.10;;;0.10;;
29906;SDS011;16776;50.958;10.994;2023-11-19T00:28:31;0.10;;;0.10;;
29906;SDS011;16776;50.958;10.994;2023-11-19T00:30:59;0.00;;;0.00;;
29906;SDS011;16776;50.958;10.994;2023-11-19T00:33:25;0.10;;;0.10;;
29906;SDS011;16776;50.958;10.994;2023-11-19T00:35:52;0.10;;;0.10;;
29906;SDS011;16776;50.958;10.994;2023-11-19T00:38:18;0.10;;;0.10;;
29906;SDS011;16776;50.958;10.994;2023-11-19T00:40:45;0.00;;;0.00;;
29906;SDS011;16776;50.958;10.994;2023-11-19T00:43:12;0.15;;;0.15;;
29906;SDS011;16776;50.958;10.994;2023-11-19T00:45:38;0.20;;;0.20;;
29906;SDS011;16776;50.958;10.994;2023-11-19T00:48:06;0.10;;;0.10;;
29906;SDS011;16776;50.958;10.994;2023-11-19T00:50:33;0.10;;;0.10;;
29906;SDS011;16776;50.958;10.994;2023-11-19T00:52:59;0.20;;;0.20;;
29906;SDS011;16776;50.958;10.994;2023-11-19T00:55:28;0.10;;;0.10;;
29906;SDS011;16776;50.958;10.994;2023-11-19T00:57:55;0.65;;;0.10;;
29906;SDS011;16776;50.958;10.994;2023-11-19T01:00:22;0.10;;;0.10;;
29906;SDS011;16776;50.958;10.994;2023-11-19T01:02:51;0.10;;;0.10;;
29906;SDS011;16776;50.958;10.994;2023-11-19T01:05:19;0.20;;;0.20;;
29906;SDS011;16776;50.958;10.994;2023-11-19T01:07:47;0.10;;;0.10;;
29906;SDS011;16776;50.958;10.994;2023-11-19T01:10:14;0.10;;;0.10;;
29906;SDS011;16776;50.958;10.994;2023-11-19T01:12:41;0.05;;;0.05;;
29906;SDS011;16776;50.958;10.994;2023-11-19T01:15:08;1.35;;;0.10;;
29906;SDS011;16776;50.958;10.994;2023-11-19T01:17:36;0.10;;;0.10;;
29906;SDS011;16776;50.958;10.994;2023-11-19T01:20:03;0.10;;;0.10;;
29906;SDS011;16776;50.958;10.994;2023-11-19T01:22:32;0.10;;;0.10;;
29906;SDS011;16776;50.958;10.994;2023-11-19T01:25:02;0.20;;;0.10;;
29906;SDS011;16776;50.958;10.994;2023-11-19T01:27:30;0.10;;;0.10;;
29906;SDS011;16776;50.958;10.994;2023-11-19T01:29:57;0.20;;;0.10;;
29906;SDS011;16776;50.958;10.994;2023-11-19T01:32:24;0.00;;;0.00;;
29906;SDS011;16776;50.958;10.994;2023-11-19T01:34:50;0.10;;;0.10;;
29906;SDS011;16776;50.958;10.994;2023-11-19T01:37:17;0.08;;;0.08;;
29906;SDS011;16776;50.958;10.994;2023-11-19T01:39:45;0.10;;;0.10;;
29906;SDS011;16776;50.958;10.994;2023-11-19T01:42:11;0.10;;;0.10;;
29906;SDS011;16776;50.958;10.994;2023-11-19T01:44:38;1.45;;;0.10;;
29906;SDS011;16776;50.958;10.994;2023-11-19T01:47:04;0.63;;;0.17;;
29906;SDS011;16776;50.958;10.994;2023-11-19T01:49:30;0.28;;;0.10;;
29906;SDS011;16776;50.958;10.994;2023-11-19T01:51:58;0.10;;;0.10;;
29906;SDS011;16776;50.958;10.994;2023-11-19T01:54:25;0.10;;;0.10;;
29906;SDS011;16776;50.958;10.994;2023-11-19T01:56:54;0.10;;;0.10;;
29906;SDS011;16776;50.958;10.994;2023-11-19T01:59:23;0.10;;;0.10;;
29906;SDS011;16776;50.958;10.994;2023-11-19T02:01:52;0.00;;;0.00;;
29906;SDS011;16776;50.958;10.994;2023-11-19T02:04:19;0.05;;;0.05;;
29906;SDS011;16776;50.958;10.994;2023-11-19T02:06:46;0.10;;;0.10;;
29906;SDS011;16776;50.958;10.994;2023-11-19T02:09:14;0.10;;;0.10;;
29906;SDS011;16776;50.958;10.994;2023-11-19T02:11:44;0.10;;;0.10;;
29906;SDS011;16776;50.958;10.994;2023-11-19T02:14:15;0.10;;;0.10;;
29906;SDS011;16776;50.958;10.994;2023-11-19T02:16:42;0.00;;;0.00;;
29906;SDS011;16776;50.958;10.994;2023-11-19T02:19:08;0.25;;;0.10;;
29906;SDS011;16776;50.958;10.994;2023-11-19T02:21:35;0.00;;;0.00;;
29906;SDS011;16776;50.958;10.994;2023-11-19T02:24:02;2.90;;;0.10;;
29906;SDS011;16776;50.958;10.994;2023-11-19T02:26:33;0.00;;;0.00;;
29906;SDS011;16776;50.958;10.994;2023-11-19T02:29:05;0.10;;;0.10;;
29906;SDS011;16776;50.958;10.994;2023-11-19T02:31:32;0.08;;;0.08;;
29906;SDS011;16776;50.958;10.994;2023-11-19T02:34:00;0.10;;;0.10;;
29906;SDS011;16776;50.958;10.994;2023-11-19T02:36:27;0.30;;;0.10;;
29906;SDS011;16776;50.958;10.994;2023-11-19T02:38:54;0.00;;;0.00;;
29906;SDS011;16776;50.958;10.994;2023-11-19T02:41:20;0.10;;;0.00;;
29906;SDS011;16776;50.958;10.994;2023-11-19T02:43:47;0.00;;;0.00;;
29906;SDS011;16776;50.958;10.994;2023-11-19T02:46:15;0.05;;;0.05;;
29906;SDS011;16776;50.958;10.994;2023-11-19T02:48:42;0.00;;;0.00;;
29906;SDS011;16776;50.958;10.994;2023-11-19T02:51:09;0.00;;;0.00;;
29906;SDS011;16776;50.958;10.994;2023-11-19T02:53:36;0.00;;;0.00;;
29906;SDS011;16776;50.958;10.994;2023-11-19T02:56:04;0.00;;;0.00;;
29906;SDS011;16776;50.958;10.994;2023-11-19T02:58:40;0.00;;;0.00;;
29906;SDS011;16776;50.958;10.994;2023-11-19T03:01:09;0.00;;;0.00;;
29906;SDS011;16776;50.958;10.994;2023-11-19T03:03:45;0.00;;;0.00;;
29906;SDS011;16776;50.958;10.994;2023-11-19T03:06:18;0.00;;;0.00;;
29906;SDS011;16776;50.958;10.994;2023-11-19T03:08:46;0.00;;;0.00;;
29906;SDS011;16776;50.958;10.994;2023-11-19T03:11:13;0.00;;;0.00;;
29906;SDS011;16776;50.958;10.994;2023-11-19T03:13:40;0.00;;;0.00;;
29906;SDS011;16776;50.958;10.994;2023-11-19T03:16:07;0.00;;;0.00;;
29906;SDS011;16776;50.958;10.994;2023-11-19T03:18:33;0.10;;;0.10;;
29906;SDS011;16776;50.958;10.994;2023-11-19T03:21:01;0.10;;;0.03;;
29906;SDS011;16776;50.958;10.994;2023-11-19T03:23:28;0.00;;;0.00;;
29906;SDS011;16776;50.958;10.994;2023-11-19T03:25:56;0.00;;;0.00;;
29906;SDS011;16776;50.958;10.994;2023-11-19T03:28:22;0.00;;;0.00;;
29906;SDS011;16776;50.958;10.994;2023-11-19T03:30:49;0.00;;;0.00;;
29906;SDS011;16776;50.958;10.994;2023-11-19T03:33:18;0.00;;;0.00;;
29906;SDS011;16776;50.958;10.994;2023-11-19T03:35:44;0.00;;;0.00;;
29906;SDS011;16776;50.958;10.994;2023-11-19T03:38:12;0.00;;;0.00;;
29906;SDS011;16776;50.958;10.994;2023-11-19T03:40:39;0.00;;;0.00;;
29906;SDS011;16776;50.958;10.994;2023-11-19T03:43:06;0.10;;;0.00;;
29906;SDS011;16776;50.958;10.994;2023-11-19T03:45:33;0.00;;;0.00;;
29906;SDS011;16776;50.958;10.994;2023-11-19T03:48:01;0.00;;;0.00;;
29906;SDS011;16776;50.958;10.994;2023-11-19T03:50:27;0.00;;;0.00;;
29906;SDS011;16776;50.958;10.994;2023-11-19T03:52:54;0.00;;;0.00;;
29906;SDS011;16776;50.958;10.994;2023-11-19T03:55:22;0.00;;;0.00;;
29906;SDS011;16776;50.958;10.994;2023-11-19T03:57:48;0.00;;;0.00;;
29906;SDS011;16776;50.958;10.994;2023-11-19T04:00:15;0.00;;;0.00;;
29906;SDS011;16776;50.958;10.994;2023-11-19T04:02:42;0.00;;;0.00;;
29906;SDS011;16776;50.958;10.994;2023-11-19T04:05:09;0.00;;;0.00;;
29906;SDS011;16776;50.958;10.994;2023-11-19T04:07:35;0.00;;;0.00;;
29906;SDS011;16776;50.958;10.994;2023-11-19T04:10:02;0.00;;;0.00;;
29906;SDS011;16776;50.958;10.994;2023-11-19T04:12:31;0.00;;;0.00;;
29906;SDS011;16776;50.958;10.994;2023-11-19T04:14:58;0.00;;;0.00;;
29906;SDS011;16776;50.958;10.994;2023-11-19T04:17:25;0.00;;;0.00;;
29906;SDS011;16776;50.958;10.994;2023-11-19T04:19:51;0.10;;;0.10;;
29906;SDS011;16776;50.958;10.994;2023-11-19T04:22:26;0.00;;;0.00;;
29906;SDS011;16776;50.958;10.994;2023-11-19T04:24:52;0.00;;;0.00;;
29906;SDS011;16776;50.958;10.994;2023-11-19T04:27:19;0.30;;;0.00;;
29906;SDS011;16776;50.958;10.994;2023-11-19T04:29:46;0.00;;;0.00;;
29906;SDS011;16776;50.958;10.994;2023-11-19T04:32:13;0.05;;;0.00;;
29906;SDS011;16776;50.958;10.994;2023-11-19T04:34:40;0.10;;;0.10;;
29906;SDS011;16776;50.958;10.994;2023-11-19T04:37:07;0.03;;;0.03;;
29906;SDS011;16776;50.958;10.994;2023-11-19T04:39:34;0.90;;;0.10;;
29906;SDS011;16776;50.958;10.994;2023-11-19T04:42:02;0.10;;;0.05;;
29906;SDS011;16776;50.958;10.994;2023-11-19T04:44:29;0.00;;;0.00;;
29906;SDS011;16776;50.958;10.994;2023-11-19T04:46:57;0.00;;;0.00;;
29906;SDS011;16776;50.958;10.994;2023-11-19T04:49:24;0.03;;;0.03;;
29906;SDS011;16776;50.958;10.994;2023-11-19T04:51:52;0.20;;;0.05;;
29906;SDS011;16776;50.958;10.994;2023-11-19T04:54:18;0.10;;;0.00;;
29906;SDS011;16776;50.958;10.994;2023-11-19T04:56:45;0.10;;;0.10;;
29906;SDS011;16776;50.958;10.994;2023-11-19T04:59:12;0.00;;;0.00;;
29906;SDS011;16776;50.958;10.994;2023-11-19T05:01:38;0.00;;;0.00;;
29906;SDS011;16776;50.958;10.994;2023-11-19T05:04:06;0.10;;;0.10;;
29906;SDS011;16776;50.958;10.994;2023-11-19T05:06:35;0.08;;;0.08;;
29906;SDS011;16776;50.958;10.994;2023-11-19T05:09:02;0.00;;;0.00;;
29906;SDS011;16776;50.958;10.994;2023-11-19T05:11:30;0.10;;;0.10;;
29906;SDS011;16776;50.958;10.994;2023-11-19T05:13:58;0.00;;;0.00;;
29906;SDS011;16776;50.958;10.994;2023-11-19T05:16:24;0.00;;;0.00;;
29906;SDS011;16776;50.958;10.994;2023-11-19T05:18:51;0.10;;;0.00;;
29906;SDS011;16776;50.958;10.994;2023-11-19T05:21:18;0.00;;;0.00;;
29906;SDS011;16776;50.958;10.994;2023-11-19T05:23:45;0.00;;;0.00;;
29906;SDS011;16776;50.958;10.994;2023-11-19T05:26:16;0.05;;;0.05;;
29906;SDS011;16776;50.958;10.994;2023-11-19T05:28:43;0.00;;;0.00;;
29906;SDS011;16776;50.958;10.994;2023-11-19T05:31:10;0.20;;;0.00;;
29906;SDS011;16776;50.958;10.994;2023-11-19T05:33:36;0.00;;;0.00;;
29906;SDS011;16776;50.958;10.994;2023-11-19T05:36:03;0.20;;;0.00;;
29906;SDS011;16776;50.958;10.994;2023-11-19T05:38:33;0.10;;;0.10;;
29906;SDS011;16776;50.958;10.994;2023-11-19T05:40:59;0.00;;;0.00;;
29906;SDS011;16776;50.958;10.994;2023-11-19T05:43:26;0.20;;;0.10;;
29906;SDS011;16776;50.958;10.994;2023-11-19T05:45:52;0.32;;;0.10;;
29906;SDS011;16776;50.958;10.994;2023-11-19T05:48:19;0.10;;;0.10;;
29906;SDS011;16776;50.958;10.994;2023-11-19T05:50:45;0.00;;;0.00;;
29906;SDS011;16776;50.958;10.994;2023-11-19T05:53:14;0.20;;;0.10;;
29906;SDS011;16776;50.958;10.994;2023-11-19T05:55:42;0.20;;;0.05;;
29906;SDS011;16776;50.958;10.994;2023-11-19T05:58:13;0.10;;;0.00;;
29906;SDS011;16776;50.958;10.994;2023-11-19T06:00:40;0.00;;;0.00;;
29906;SDS011;16776;50.958;10.994;2023-11-19T06:03:07;0.10;;;0.10;;
29906;SDS011;16776;50.958;10.994;2023-11-19T06:05:34;0.00;;;0.00;;
29906;SDS011;16776;50.958;10.994;2023-11-19T06:08:00;0.10;;;0.10;;
29906;SDS011;16776;50.958;10.994;2023-11-19T06:10:27;0.20;;;0.20;;
29906;SDS011;16776;50.958;10.994;2023-11-19T06:12:57;0.20;;;0.20;;
29906;SDS011;16776;50.958;10.994;2023-11-19T06:15:24;0.43;;;0.10;;
29906;SDS011;16776;50.958;10.994;2023-11-19T06:17:51;1.33;;;0.10;;
29906;SDS011;16776;50.958;10.994;2023-11-19T06:20:18;0.10;;;0.10;;
29906;SDS011;16776;50.958;10.994;2023-11-19T06:22:45;0.22;;;0.10;;
29906;SDS011;16776;50.958;10.994;2023-11-19T06:25:11;0.32;;;0.00;;
29906;SDS011;16776;50.958;10.994;2023-11-19T06:27:39;0.40;;;0.10;;
29906;SDS011;16776;50.958;10.994;2023-11-19T06:30:08;0.00;;;0.00;;
29906;SDS011;16776;50.958;10.994;2023-11-19T06:32:35;0.20;;;0.20;;
29906;SDS011;16776;50.958;10.994;2023-11-19T06:35:02;0.30;;;0.13;;
29906;SDS011;16776;50.958;10.994;2023-11-19T06:37:29;0.65;;;0.10;;
29906;SDS011;16776;50.958;10.994;2023-11-19T06:39:56;0.20;;;0.20;;
29906;SDS011;16776;50.958;10.994;2023-11-19T06:42:22;0.10;;;0.10;;
29906;SDS011;16776;50.958;10.994;2023-11-19T06:44:49;0.10;;;0.10;;
29906;SDS011;16776;50.958;10.994;2023-11-19T06:47:17;0.45;;;0.20;;
29906;SDS011;16776;50.958;10.994;2023-11-19T06:49:44;0.25;;;0.20;;
29906;SDS011;16776;50.958;10.994;2023-11-19T06:52:11;0.20;;;0.20;;
29906;SDS011;16776;50.958;10.994;2023-11-19T06:54:37;1.13;;;0.20;;
29906;SDS011;16776;50.958;10.994;2023-11-19T06:57:05;0.75;;;0.20;;
29906;SDS011;16776;50.958;10.994;2023-11-19T06:59:31;0.22;;;0.17;;
29906;SDS011;16776;50.958;10.994;2023-11-19T07:01:58;0.30;;;0.30;;
29906;SDS011;16776;50.958;10.994;2023-11-19T07:04:26;0.57;;;0.20;;
29906;SDS011;16776;50.958;10.994;2023-11-19T07:06:53;0.20;;;0.20;;
29906;SDS011;16776;50.958;10.994;2023-11-19T07:09:19;0.25;;;0.10;;
29906;SDS011;16776;50.958;10.994;2023-11-19T07:11:46;0.30;;;0.30;;
29906;SDS011;16776;50.958;10.994;2023-11-19T07:14:13;0.68;;;0.38;;
29906;SDS011;16776;50.958;10.994;2023-11-19T07:16:39;0.85;;;0.40;;
29906;SDS011;16776;50.958;10.994;2023-11-19T07:19:06;0.88;;;0.40;;
29906;SDS011;16776;50.958;10.994;2023-11-19T07:21:34;0.32;;;0.28;;
29906;SDS011;16776;50.958;10.994;2023-11-19T07:24:04;0.20;;;0.20;;
29906;SDS011;16776;50.958;10.994;2023-11-19T07:26:32;1.08;;;0.30;;
29906;SDS011;16776;50.958;10.994;2023-11-19T07:28:58;0.60;;;0.20;;
29906;SDS011;16776;50.958;10.994;2023-11-19T07:31:26;1.95;;;0.30;;
29906;SDS011;16776;50.958;10.994;2023-11-19T07:33:53;1.08;;;0.20;;
29906;SDS011;16776;50.958;10.994;2023-11-19T07:36:20;0.10;;;0.10;;
29906;SDS011;16776;50.958;10.994;2023-11-19T07:38:47;0.52;;;0.20;;
29906;SDS011;16776;50.958;10.994;2023-11-19T07:41:15;0.75;;;0.20;;
29906;SDS011;16776;50.958;10.994;2023-11-19T07:43:43;1.10;;;0.30;;
29906;SDS011;16776;50.958;10.994;2023-11-19T07:46:10;0.10;;;0.10;;
29906;SDS011;16776;50.958;10.994;2023-11-19T07:48:38;3.85;;;0.50;;
29906;SDS011;16776;50.958;10.994;2023-11-19T07:51:05;0.20;;;0.20;;
29906;SDS011;16776;50.958;10.994;2023-11-19T07:53:32;0.52;;;0.20;;
29906;SDS011;16776;50.958;10.994;2023-11-19T07:56:00;0.77;;;0.30;;
29906;SDS011;16776;50.958;10.994;2023-11-19T07:58:27;0.20;;;0.20;;
29906;SDS011;16776;50.958;10.994;2023-11-19T08:00:53;1.63;;;0.20;;
29906;SDS011;16776;50.958;10.994;2023-11-19T08:03:20;1.17;;;0.63;;
29906;SDS011;16776;50.958;10.994;2023-11-19T08:05:48;0.15;;;0.10;;
29906;SDS011;16776;50.958;10.994;2023-11-19T08:08:13;1.60;;;0.40;;
29906;SDS011;16776;50.958;10.994;2023-11-19T08:10:40;1.10;;;0.20;;
29906;SDS011;16776;50.958;10.994;2023-11-19T08:13:08;0.90;;;0.30;;
29906;SDS011;16776;50.958;10.994;2023-11-19T08:15:35;0.30;;;0.20;;
29906;SDS011;16776;50.958;10.994;2023-11-19T08:18:01;0.93;;;0.20;;
29906;SDS011;16776;50.958;10.994;2023-11-19T08:20:28;0.28;;;0.20;;
29906;SDS011;16776;50.958;10.994;2023-11-19T08:22:54;1.05;;;0.20;;
29906;SDS011;16776;50.958;10.994;2023-11-19T08:25:21;0.28;;;0.28;;
29906;SDS011;16776;50.958;10.994;2023-11-19T08:27:48;0.40;;;0.30;;
29906;SDS011;16776;50.958;10.994;2023-11-19T08:30:16;0.47;;;0.20;;
29906;SDS011;16776;50.958;10.994;2023-11-19T08:32:42;0.55;;;0.20;;
29906;SDS011;16776;50.958;10.994;2023-11-19T08:35:09;0.35;;;0.10;;
29906;SDS011;16776;50.958;10.994;2023-11-19T08:37:36;2.10;;;0.40;;
29906;SDS011;16776;50.958;10.994;2023-11-19T08:40:04;1.42;;;0.20;;
29906;SDS011;16776;50.958;10.994;2023-11-19T08:42:32;0.55;;;0.20;;
29906;SDS011;16776;50.958;10.994;2023-11-19T08:44:59;0.60;;;0.30;;
29906;SDS011;16776;50.958;10.994;2023-11-19T08:47:26;4.30;;;0.90;;
29906;SDS011;16776;50.958;10.994;2023-11-19T08:49:53;3.58;;;0.90;;
29906;SDS011;16776;50.958;10.994;2023-11-19T08:52:20;3.83;;;1.10;;
29906;SDS011;16776;50.958;10.994;2023-11-19T08:54:46;1.75;;;0.50;;
29906;SDS011;16776;50.958;10.994;2023-11-19T08:57:13;3.05;;;0.60;;
29906;SDS011;16776;50.958;10.994;2023-11-19T08:59:39;3.08;;;0.60;;
29906;SDS011;16776;50.958;10.994;2023-11-19T09:02:06;1.42;;;0.57;;
29906;SDS011;16776;50.958;10.994;2023-11-19T09:04:34;4.53;;;0.90;;
29906;SDS011;16776;50.958;10.994;2023-11-19T09:07:01;4.32;;;0.65;;
29906;SDS011;16776;50.958;10.994;2023-11-19T09:09:28;2.97;;;0.60;;
29906;SDS011;16776;50.958;10.994;2023-11-19T09:11:54;4.03;;;0.80;;
29906;SDS011;16776;50.958;10.994;2023-11-19T09:14:21;3.28;;;1.00;;
29906;SDS011;16776;50.958;10.994;2023-11-19T09:16:50;2.50;;;1.02;;
29906;SDS011;16776;50.958;10.994;2023-11-19T09:19:17;4.05;;;0.82;;
29906;SDS011;16776;50.958;10.994;2023-11-19T09:21:45;1.98;;;0.73;;
29906;SDS011;16776;50.958;10.994;2023-11-19T09:24:14;5.00;;;0.93;;
29906;SDS011;16776;50.958;10.994;2023-11-19T09:26:40;1.25;;;0.52;;
29906;SDS011;16776;50.958;10.994;2023-11-19T09:29:07;4.68;;;1.25;;
29906;SDS011;16776;50.958;10.994;2023-11-19T09:31:34;6.03;;;1.27;;
29906;SDS011;16776;50.958;10.994;2023-11-19T09:34:00;2.38;;;0.88;;
29906;SDS011;16776;50.958;10.994;2023-11-19T09:36:27;3.42;;;0.82;;
29906;SDS011;16776;50.958;10.994;2023-11-19T09:38:55;5.32;;;1.35;;
29906;SDS011;16776;50.958;10.994;2023-11-19T09:41:22;5.68;;;1.40;;
29906;SDS011;16776;50.958;10.994;2023-11-19T09:43:49;3.33;;;1.17;;
29906;SDS011;16776;50.958;10.994;2023-11-19T09:46:16;6.65;;;1.55;;
29906;SDS011;16776;50.958;10.994;2023-11-19T09:48:43;7.57;;;1.30;;
29906;SDS011;16776;50.958;10.994;2023-11-19T09:51:11;3.85;;;1.33;;
29906;SDS011;16776;50.958;10.994;2023-11-19T09:53:38;6.32;;;1.58;;
29906;SDS011;16776;50.958;10.994;2023-11-19T09:56:07;3.65;;;1.45;;
29906;SDS011;16776;50.958;10.994;2023-11-19T09:58:34;1.85;;;0.63;;
29906;SDS011;16776;50.958;10.994;2023-11-19T10:01:01;3.17;;;1.35;;
29906;SDS011;16776;50.958;10.994;2023-11-19T10:03:32;4.45;;;1.20;;
29906;SDS011;16776;50.958;10.994;2023-11-19T10:05:59;4.80;;;1.27;;
29906;SDS011;16776;50.958;10.994;2023-11-19T10:08:27;4.60;;;1.17;;
29906;SDS011;16776;50.958;10.994;2023-11-19T10:10:54;3.35;;;1.02;;
29906;SDS011;16776;50.958;10.994;2023-11-19T10:13:23;2.88;;;1.10;;
29906;SDS011;16776;50.958;10.994;2023-11-19T10:15:52;5.10;;;1.83;;
29906;SDS011;16776;50.958;10.994;2023-11-19T10:18:23;3.67;;;1.17;;
29906;SDS011;16776;50.958;10.994;2023-11-19T10:20:50;3.88;;;0.95;;
29906;SDS011;16776;50.958;10.994;2023-11-19T10:23:17;4.03;;;1.00;;
29906;SDS011;16776;50.958;10.994;2023-11-19T10:25:44;7.10;;;1.85;;
29906;SDS011;16776;50.958;10.994;2023-11-19T10:28:11;3.33;;;1.10;;
29906;SDS011;16776;50.958;10.994;2023-11-19T10:30:42;4.22;;;0.93;;
29906;SDS011;16776;50.958;10.994;2023-11-19T10:33:09;2.88;;;0.80;;
29906;SDS011;16776;50.958;10.994;2023-11-19T10:35:50;3.65;;;0.93;;
29906;SDS011;16776;50.958;10.994;2023-11-19T10:38:18;3.83;;;0.93;;
29906;SDS011;16776;50.958;10.994;2023-11-19T10:40:45;1.73;;;0.47;;
29906;SDS011;16776;50.958;10.994;2023-11-19T10:43:12;4.72;;;0.82;;
29906;SDS011;16776;50.958;10.994;2023-11-19T10:45:39;3.78;;;0.90;;
29906;SDS011;16776;50.958;10.994;2023-11-19T10:48:07;2.88;;;0.73;;
29906;SDS011;16776;50.958;10.994;2023-11-19T10:50:35;1.88;;;1.00;;
29906;SDS011;16776;50.958;10.994;2023-11-19T10:53:03;3.95;;;0.80;;
29906;SDS011;16776;50.958;10.994;2023-11-19T10:55:30;2.40;;;0.98;;
29906;SDS011;16776;50.958;10.994;2023-11-19T10:58:00;3.25;;;0.77;;
29906;SDS011;16776;50.958;10.994;2023-11-19T11:00:28;4.03;;;0.90;;
29906;SDS011;16776;50.958;10.994;2023-11-19T11:02:59;3.50;;;1.13;;
29906;SDS011;16776;50.958;10.994;2023-11-19T11:05:28;3.65;;;0.82;;
29906;SDS011;16776;50.958;10.994;2023-11-19T11:07:58;1.63;;;0.52;;
29906;SDS011;16776;50.958;10.994;2023-11-19T11:10:26;5.60;;;0.95;;
29906;SDS011;16776;50.958;10.994;2023-11-19T11:12:58;4.22;;;0.98;;
29906;SDS011;16776;50.958;10.994;2023-11-19T11:15:26;3.58;;;0.70;;
29906;SDS011;16776;50.958;10.994;2023-11-19T11:17:54;6.25;;;1.17;;
29906;SDS011;16776;50.958;10.994;2023-11-19T11:20:26;3.25;;;1.08;;
29906;SDS011;16776;50.958;10.994;2023-11-19T11:22:57;1.40;;;0.70;;
29906;SDS011;16776;50.958;10.994;2023-11-19T11:25:36;2.90;;;0.70;;
29906;SDS011;16776;50.958;10.994;2023-11-19T11:28:14;2.03;;;0.70;;
29906;SDS011;16776;50.958;10.994;2023-11-19T11:30:50;2.63;;;0.98;;
29906;SDS011;16776;50.958;10.994;2023-11-19T11:33:30;2.17;;;0.93;;
29906;SDS011;16776;50.958;10.994;2023-11-19T11:36:08;4.95;;;1.00;;
29906;SDS011;16776;50.958;10.994;2023-11-19T11:38:42;4.47;;;0.88;;
29906;SDS011;16776;50.958;10.994;2023-11-19T11:41:16;2.95;;;1.23;;
29906;SDS011;16776;50.958;10.994;2023-11-19T11:43:45;2.85;;;0.90;;
29906;SDS011;16776;50.958;10.994;2023-11-19T11:49:16;4.65;;;1.08;;
29906;SDS011;16776;50.958;10.994;2023-11-19T11:51:57;3.83;;;0.70;;
29906;SDS011;16776;50.958;10.994;2023-11-19T11:54:30;2.58;;;0.88;;
29906;SDS011;16776;50.958;10.994;2023-11-19T11:57:01;2.22;;;0.55;;
29906;SDS011;16776;50.958;10.994;2023-11-19T11:59:42;1.85;;;0.98;;
29906;SDS011;16776;50.958;10.994;2023-11-19T12:02:11;2.70;;;1.23;;
29906;SDS011;16776;50.958;10.994;2023-11-19T12:04:41;3.28;;;0.70;;
29906;SDS011;16776;50.958;10.994;2023-11-19T12:07:09;2.70;;;1.08;;
29906;SDS011;16776;50.958;10.994;2023-11-19T12:09:40;2.80;;;1.50;;
29906;SDS011;16776;50.958;10.994;2023-11-19T12:12:11;4.07;;;0.90;;
29906;SDS011;16776;50.958;10.994;2023-11-19T12:15:02;2.45;;;0.98;;
29906;SDS011;16776;50.958;10.994;2023-11-19T12:17:38;3.72;;;0.90;;
29906;SDS011;16776;50.958;10.994;2023-11-19T12:20:10;2.20;;;1.10;;
29906;SDS011;16776;50.958;10.994;2023-11-19T12:22:37;3.20;;;0.85;;
29906;SDS011;16776;50.958;10.994;2023-11-19T12:25:06;4.78;;;1.10;;
29906;SDS011;16776;50.958;10.994;2023-11-19T12:27:34;4.53;;;0.75;;
29906;SDS011;16776;50.958;10.994;2023-11-19T12:30:00;3.22;;;0.90;;
29906;SDS011;16776;50.958;10.994;2023-11-19T12:32:36;3.65;;;0.77;;
29906;SDS011;16776;50.958;10.994;2023-11-19T12:35:04;3.45;;;0.80;;
29906;SDS011;16776;50.958;10.994;2023-11-19T12:37:30;4.50;;;0.77;;
29906;SDS011;16776;50.958;10.994;2023-11-19T12:39:57;2.58;;;1.02;;
29906;SDS011;16776;50.958;10.994;2023-11-19T12:42:35;3.03;;;1.00;;
29906;SDS011;16776;50.958;10.994;2023-11-19T12:45:02;2.20;;;0.77;;
29906;SDS011;16776;50.958;10.994;2023-11-19T12:47:30;6.22;;;1.27;;
29906;SDS011;16776;50.958;10.994;2023-11-19T12:49:56;4.63;;;0.93;;
29906;SDS011;16776;50.958;10.994;2023-11-19T12:52:23;3.45;;;1.02;;
29906;SDS011;16776;50.958;10.994;2023-11-19T12:54:49;1.63;;;1.15;;
29906;SDS011;16776;50.958;10.994;2023-11-19T12:57:16;2.53;;;1.15;;
29906;SDS011;16776;50.958;10.994;2023-11-19T12:59:55;11.23;;;1.70;;
29906;SDS011;16776;50.958;10.994;2023-11-19T13:02:23;2.28;;;1.17;;
29906;SDS011;16776;50.958;10.994;2023-11-19T13:05:23;4.38;;;1.45;;
29906;SDS011;16776;50.958;10.994;2023-11-19T13:07:51;3.45;;;0.90;;
29906;SDS011;16776;50.958;10.994;2023-11-19T13:10:23;3.67;;;0.90;;
29906;SDS011;16776;50.958;10.994;2023-11-19T13:12:59;4.03;;;1.02;;
29906;SDS011;16776;50.958;10.994;2023-11-19T13:15:31;5.10;;;1.00;;
29906;SDS011;16776;50.958;10.994;2023-11-19T13:17:58;3.70;;;1.00;;
29906;SDS011;16776;50.958;10.994;2023-11-19T13:20:25;4.85;;;1.35;;
29906;SDS011;16776;50.958;10.994;2023-11-19T13:22:55;5.15;;;1.63;;
29906;SDS011;16776;50.958;10.994;2023-11-19T13:25:29;6.68;;;1.33;;
29906;SDS011;16776;50.958;10.994;2023-11-19T13:27:56;4.07;;;1.35;;
29906;SDS011;16776;50.958;10.994;2023-11-19T13:30:23;6.28;;;1.42;;
29906;SDS011;16776;50.958;10.994;2023-11-19T13:32:52;2.15;;;0.60;;
29906;SDS011;16776;50.958;10.994;2023-11-19T13:35:20;2.78;;;1.00;;
29906;SDS011;16776;50.958;10.994;2023-11-19T13:37:47;3.28;;;0.70;;
29906;SDS011;16776;50.958;10.994;2023-11-19T13:40:13;5.65;;;1.60;;
29906;SDS011;16776;50.958;10.994;2023-11-19T13:42:40;4.07;;;1.15;;
29906;SDS011;16776;50.958;10.994;2023-11-19T13:45:08;1.90;;;0.70;;
29906;SDS011;16776;50.958;10.994;2023-11-19T13:47:37;5.72;;;1.63;;
29906;SDS011;16776;50.958;10.994;2023-11-19T13:50:07;3.17;;;1.45;;
29906;SDS011;16776;50.958;10.994;2023-11-19T13:52:35;6.05;;;1.30;;
29906;SDS011;16776;50.958;10.994;2023-11-19T13:55:03;4.65;;;1.05;;
29906;SDS011;16776;50.958;10.994;2023-11-19T13:57:32;2.05;;;1.00;;
29906;SDS011;16776;50.958;10.994;2023-11-19T13:59:59;2.45;;;0.90;;
29906;SDS011;16776;50.958;10.994;2023-11-19T14:02:26;2.70;;;1.38;;
29906;SDS011;16776;50.958;10.994;2023-11-19T14:04:52;5.32;;;1.13;;
29906;SDS011;16776;50.958;10.994;2023-11-19T14:07:21;5.30;;;1.10;;
29906;SDS011;16776;50.958;10.994;2023-11-19T14:09:47;4.65;;;1.58;;
29906;SDS011;16776;50.958;10.994;2023-11-19T14:12:15;3.88;;;1.00;;
29906;SDS011;16776;50.958;10.994;2023-11-19T14:14:42;5.35;;;1.02;;
29906;SDS011;16776;50.958;10.994;2023-11-19T14:17:08;7.13;;;1.25;;
29906;SDS011;16776;50.958;10.994;2023-11-19T14:19:36;3.40;;;1.20;;
29906;SDS011;16776;50.958;10.994;2023-11-19T14:22:03;5.45;;;1.58;;
29906;SDS011;16776;50.958;10.994;2023-11-19T14:24:31;3.47;;;1.00;;
29906;SDS011;16776;50.958;10.994;2023-11-19T14:26:58;3.45;;;1.08;;
29906;SDS011;16776;50.958;10.994;2023-11-19T14:29:25;2.83;;;0.82;;
29906;SDS011;16776;50.958;10.994;2023-11-19T14:31:51;2.80;;;1.10;;
29906;SDS011;16776;50.958;10.994;2023-11-19T14:34:17;3.80;;;0.90;;
29906;SDS011;16776;50.958;10.994;2023-11-19T14:36:45;2.63;;;1.00;;
29906;SDS011;16776;50.958;10.994;2023-11-19T14:39:12;3.65;;;1.08;;
29906;SDS011;16776;50.958;10.994;2023-11-19T14:41:40;6.35;;;1.20;;